Terminal Aerodrome Forecast
Issued by NWS

Home | Current Version | Previous Version | Text Only | Print | Product List | Glossary On
Versions: 1 2 3 4 5 6 7 8 9 10 11 12 13 14 15
000
FTUS41 KPHI 060538
TAFPNE
TAF
KPNE 060538Z 0606/0706 VRB03KT P6SM OVC250
     FM060900 VRB03KT P6SM BKN080
     FM061300 12005KT P6SM VCSH OVC050
     FM061800 13008KT P6SM VCSH BKN050 PROB30 0620/0623 3SM TSRA
      OVC040CB
     FM070000 12006KT P6SM SCT050 BKN150=

USA.gov is the U.S. government's official web portal to all federal, state and local government web resources and services.